createdAt,value
2023-04-07T00:01:39.169Z,44.77
2023-04-07T00:06:45.398Z,45.42
2023-04-07T00:11:49.649Z,45.42
2023-04-07T00:16:53.103Z,44.87
2023-04-07T00:21:58.324Z,45.70
2023-04-07T00:27:01.828Z,45.57
2023-04-07T00:32:05.577Z,45.97
2023-04-07T00:37:10.597Z,46.08
2023-04-07T00:42:13.987Z,45.98
2023-04-07T00:47:17.746Z,46.21
2023-04-07T00:52:28.926Z,46.30
2023-04-07T00:57:32.591Z,46.78
2023-04-07T01:02:42.929Z,47.27
2023-04-07T01:08:02.338Z,48.28
2023-04-07T01:13:10.218Z,46.99
2023-04-07T01:18:19.200Z,46.74
2023-04-07T01:23:33.831Z,47.30
2023-04-07T01:29:03.553Z,48.01
2023-04-07T01:34:11.487Z,48.10
2023-04-07T01:39:15.485Z,47.70
2023-04-07T01:44:19.956Z,47.40
2023-04-07T01:49:27.286Z,47.77
2023-04-07T01:54:31.701Z,47.54
2023-04-07T01:59:35.258Z,47.65
2023-04-07T02:04:46.341Z,47.93
2023-04-07T02:09:51.811Z,47.82
2023-04-07T02:14:56.381Z,48.20
2023-04-07T02:20:03.214Z,48.23
2023-04-07T02:25:24.481Z,48.66
2023-04-07T02:30:28.899Z,48.03
2023-04-07T02:35:33.841Z,48.67
2023-04-07T02:40:37.695Z,47.59
2023-04-07T02:45:41.129Z,48.67
2023-04-07T02:50:46.097Z,48.74
2023-04-07T02:55:49.180Z,48.19
2023-04-07T03:00:52.880Z,48.61
2023-04-07T03:05:57.806Z,48.86
2023-04-07T03:11:00.942Z,47.87
2023-04-07T03:16:04.435Z,48.53
2023-04-07T03:21:09.409Z,48.62
2023-04-07T03:26:12.606Z,48.86
2023-04-07T03:31:16.122Z,48.48
2023-04-07T03:36:21.111Z,48.15
2023-04-07T03:41:24.884Z,48.12
2023-04-07T03:46:28.523Z,47.96
2023-04-07T03:51:34.206Z,47.74
2023-04-07T03:56:38.495Z,47.38
2023-04-07T04:01:42.014Z,47.53
2023-04-07T04:06:48.003Z,47.35
2023-04-07T04:11:51.661Z,47.40
2023-04-07T04:16:55.382Z,42.45
2023-04-07T04:22:00.424Z,30.86
2023-04-07T04:27:03.872Z,26.11
2023-04-07T04:32:07.635Z,26.39
2023-04-07T04:37:12.477Z,33.13
2023-04-07T04:42:16.793Z,36.85
2023-04-07T04:47:20.772Z,39.20
2023-04-07T04:52:25.700Z,39.83
2023-04-07T04:57:28.876Z,39.64
2023-04-07T05:02:32.456Z,37.34
2023-04-07T05:07:39.823Z,34.71
2023-04-07T05:12:43.387Z,24.09
2023-04-07T05:17:50.678Z,19.37
2023-04-07T05:22:55.697Z,16.65
2023-04-07T05:28:00.143Z,15.41
2023-04-07T05:33:03.408Z,16.75
2023-04-07T05:38:08.263Z,13.82
2023-04-07T05:43:12.248Z,12.65
2023-04-07T05:48:15.937Z,12.99
2023-04-07T05:53:20.898Z,11.24
2023-04-07T05:58:24.388Z,11.66
2023-04-07T06:03:27.976Z,10.27
2023-04-07T06:08:32.902Z,9.82
2023-04-07T06:13:36.426Z,8.69
2023-04-07T06:18:39.991Z,8.95
2023-04-07T06:23:44.936Z,8.84
2023-04-07T06:28:48.553Z,9.23
2023-04-07T06:33:51.975Z,8.61
2023-04-07T06:38:56.953Z,9.41
2023-04-07T06:44:00.548Z,8.01
2023-04-07T06:49:04.072Z,8.36
2023-04-07T06:54:13.198Z,7.85
2023-04-07T06:59:16.993Z,8.01
2023-04-07T07:04:20.705Z,8.23
2023-04-07T07:09:27.651Z,8.10
2023-04-07T07:14:31.284Z,7.60
2023-04-07T07:19:34.744Z,7.74
2023-04-07T07:24:39.719Z,7.33
2023-04-07T07:29:43.481Z,8.01
2023-04-07T07:34:46.922Z,8.33
2023-04-07T07:39:52.112Z,7.95
2023-04-07T07:44:55.568Z,8.68
2023-04-07T07:49:59.239Z,8.18
2023-04-07T07:55:07.224Z,8.36
2023-04-07T08:00:12.186Z,8.12
2023-04-07T08:05:15.702Z,7.04
2023-04-07T08:10:21.435Z,8.37
2023-04-07T08:15:24.974Z,8.38
2023-04-07T08:20:28.848Z,8.89
2023-04-07T08:25:33.904Z,9.69
2023-04-07T08:30:38.179Z,10.71
2023-04-07T08:35:41.847Z,12.20
2023-04-07T08:40:47.805Z,13.99
2023-04-07T08:45:53.700Z,14.58
2023-04-07T08:50:58.545Z,15.80
2023-04-07T08:56:04.229Z,17.20
2023-04-07T09:01:08.670Z,18.18
2023-04-07T09:06:12.632Z,18.60
2023-04-07T09:11:17.676Z,19.10
2023-04-07T09:16:21.514Z,20.20
2023-04-07T09:21:25.605Z,20.54
2023-04-07T09:26:31.758Z,20.25
2023-04-07T09:31:47.739Z,20.58
2023-04-07T09:36:51.542Z,21.56
2023-04-07T09:41:56.766Z,21.53
2023-04-07T09:47:00.831Z,22.48
2023-04-07T09:52:07.899Z,21.62
2023-04-07T09:57:13.818Z,22.12
2023-04-07T10:02:17.499Z,22.26
2023-04-07T10:07:21.586Z,22.93
2023-04-07T10:12:27.351Z,22.21
2023-04-07T10:17:32.045Z,22.32
2023-04-07T10:22:36.694Z,22.71
2023-04-07T10:27:50.626Z,22.88
2023-04-07T10:32:55.585Z,22.56
2023-04-07T10:38:13.824Z,22.50
2023-04-07T10:43:39.287Z,22.87
2023-04-07T10:48:42.838Z,22.81
2023-04-07T10:54:20.778Z,23.31
2023-04-07T10:59:28.072Z,23.50
2023-04-07T11:04:38.364Z,23.43
2023-04-07T11:09:42.489Z,23.61
2023-04-07T11:14:47.345Z,23.61
2023-04-07T11:19:54.175Z,23.23
2023-04-07T11:24:57.749Z,23.83
2023-04-07T11:30:02.783Z,24.11
2023-04-07T11:35:08.561Z,23.45
2023-04-07T11:40:14.785Z,23.51
2023-04-07T11:45:20.982Z,23.35
2023-04-07T11:50:40.837Z,24.04
2023-04-07T11:55:44.388Z,23.95
2023-04-07T12:00:58.914Z,24.39
2023-04-07T12:06:02.872Z,23.46
2023-04-07T12:11:06.849Z,23.90
2023-04-07T12:16:11.784Z,23.71
2023-04-07T12:21:15.346Z,23.61
2023-04-07T12:26:20.099Z,24.19
2023-04-07T12:31:26.080Z,23.92
2023-04-07T12:36:29.665Z,24.12
2023-04-07T12:41:34.017Z,23.91
2023-04-07T12:46:39.009Z,23.75
2023-04-07T12:51:42.655Z,23.75
2023-04-07T12:56:46.159Z,24.18
2023-04-07T13:01:51.734Z,23.61
2023-04-07T13:06:55.430Z,24.27
2023-04-07T13:11:59.264Z,23.84
2023-04-07T13:17:04.308Z,23.95
2023-04-07T13:22:08.404Z,23.84
2023-04-07T13:27:12.155Z,23.89
2023-04-07T13:32:19.961Z,24.07
2023-04-07T13:37:23.576Z,23.73
2023-04-07T13:42:27.049Z,23.88
2023-04-07T13:47:34.632Z,24.00
2023-04-07T13:52:38.420Z,24.23
2023-04-07T13:57:42.025Z,24.11
2023-04-07T14:02:48.630Z,24.00
2023-04-07T14:07:52.322Z,24.26
2023-04-07T14:12:56.486Z,23.97
2023-04-07T14:18:01.992Z,24.16
2023-04-07T14:23:05.522Z,24.29
2023-04-07T14:28:09.686Z,24.44
2023-04-07T14:33:15.777Z,24.71
2023-04-07T14:38:19.408Z,24.94
2023-04-07T14:43:23.086Z,24.89
2023-04-07T14:48:28.384Z,25.26
2023-04-07T14:53:31.840Z,25.10
2023-04-07T14:58:37.618Z,24.97
2023-04-07T15:03:42.646Z,25.04
2023-04-07T15:08:46.213Z,25.39
2023-04-07T15:13:49.946Z,25.92
2023-04-07T15:18:55.261Z,26.09
2023-04-07T15:23:58.717Z,26.64
2023-04-07T15:29:02.397Z,26.58
2023-04-07T15:34:07.258Z,27.33
2023-04-07T15:39:10.535Z,27.05
2023-04-07T15:44:19.028Z,27.63
2023-04-07T15:49:25.740Z,27.77
2023-04-07T15:54:29.714Z,27.81
2023-04-07T15:59:33.170Z,28.41
2023-04-07T16:04:38.050Z,28.38
2023-04-07T16:09:41.213Z,28.39
2023-04-07T16:14:44.715Z,28.92
2023-04-07T16:19:49.660Z,29.23
2023-04-07T16:24:52.787Z,30.46
2023-04-07T16:29:56.202Z,29.78
2023-04-07T16:35:01.317Z,30.54
2023-04-07T16:40:07.431Z,30.99
2023-04-07T16:45:11.322Z,32.38
2023-04-07T16:50:16.361Z,32.57
2023-04-07T16:55:20.046Z,31.91
2023-04-07T17:00:23.705Z,32.83
2023-04-07T17:05:28.699Z,32.83
2023-04-07T17:10:32.272Z,33.27
2023-04-07T17:15:38.187Z,33.67
2023-04-07T17:20:43.434Z,34.38
2023-04-07T17:25:46.965Z,34.41
2023-04-07T17:30:50.498Z,34.03
2023-04-07T17:35:55.568Z,34.26
2023-04-07T17:40:59.634Z,34.53
2023-04-07T17:46:04.658Z,34.92
2023-04-07T17:51:09.830Z,35.31
2023-04-07T17:56:13.984Z,35.24
2023-04-07T18:01:18.057Z,35.75
2023-04-07T18:06:23.615Z,36.20
2023-04-07T18:11:27.611Z,36.39
2023-04-07T18:16:31.278Z,35.82
2023-04-07T18:21:36.424Z,35.99
2023-04-07T18:26:39.565Z,36.32
2023-04-07T18:31:43.424Z,35.37
2023-04-07T18:36:48.932Z,36.88
2023-04-07T18:41:52.676Z,36.28
2023-04-07T18:46:56.453Z,36.88
2023-04-07T18:52:01.449Z,36.74
2023-04-07T18:57:05.238Z,37.27
2023-04-07T19:02:09.278Z,37.64
2023-04-07T19:07:14.206Z,37.12
2023-04-07T19:12:17.621Z,36.36
2023-04-07T19:17:21.130Z,36.73
2023-04-07T19:22:26.161Z,36.90
2023-04-07T19:27:29.944Z,36.40
2023-04-07T19:32:33.515Z,36.67
2023-04-07T19:37:40.390Z,36.95
2023-04-07T19:42:44.040Z,36.83
2023-04-07T19:47:47.770Z,36.94
2023-04-07T19:52:53.539Z,37.71
2023-04-07T19:57:57.037Z,37.17
2023-04-07T20:03:00.766Z,37.46
2023-04-07T20:08:06.211Z,38.00
2023-04-07T20:13:11.268Z,38.28
2023-04-07T20:18:17.024Z,38.04
2023-04-07T20:23:22.345Z,38.28
2023-04-07T20:28:25.938Z,38.38
2023-04-07T20:33:29.586Z,38.84
2023-04-07T20:38:35.001Z,38.25
2023-04-07T20:43:38.462Z,38.41
2023-04-07T20:48:41.958Z,38.26
2023-04-07T20:53:47.186Z,38.07
2023-04-07T20:58:51.065Z,38.46
2023-04-07T21:03:55.026Z,38.22
2023-04-07T21:09:00.008Z,38.56
2023-04-07T21:14:03.303Z,38.71
2023-04-07T21:19:06.692Z,38.56
2023-04-07T21:24:11.613Z,38.76
2023-04-07T21:29:14.781Z,38.59
2023-04-07T21:34:18.237Z,38.64
2023-04-07T21:39:23.116Z,38.59
2023-04-07T21:44:26.289Z,37.89
2023-04-07T21:49:29.712Z,38.28
2023-04-07T21:54:34.677Z,38.59
2023-04-07T21:59:38.123Z,38.34
2023-04-07T22:04:41.632Z,38.45
2023-04-07T22:09:47.356Z,38.55
2023-04-07T22:14:50.953Z,38.83
2023-04-07T22:19:54.360Z,39.25
2023-04-07T22:24:59.414Z,39.16
2023-04-07T22:30:02.623Z,38.40
2023-04-07T22:35:07.432Z,39.05
2023-04-07T22:40:12.754Z,38.88
2023-04-07T22:45:17.325Z,38.95
2023-04-07T22:50:20.728Z,39.09
2023-04-07T22:55:25.737Z,38.87
2023-04-07T23:00:29.440Z,39.52
2023-04-07T23:05:32.905Z,39.63
2023-04-07T23:10:37.876Z,39.81
2023-04-07T23:15:41.168Z,39.34
2023-04-07T23:20:52.126Z,40.35
2023-04-07T23:25:57.104Z,40.06
2023-04-07T23:31:00.260Z,39.81
2023-04-07T23:36:04.048Z,40.15
2023-04-07T23:41:09.249Z,40.50
2023-04-07T23:46:12.756Z,40.36
2023-04-07T23:51:16.287Z,40.38
2023-04-07T23:56:21.362Z,40.27
